Time;durP1;ratioP1;P1;durP2;ratioP2;P2;SDS_P1;SDS_P2;PMS_P1;PMS_P2;Temp;Humidity;BMP_temperature;BMP_pressure;BME280_temperature;BME280_humidity;BME280_pressure;Samples;Min_cycle;Max_cycle;Signal;HPM_P1;HPM_P2
2023/02/02 00:01:21;;;;;;;7.10;4.90;;;;;;;-128.00;-1.00;-1.00;104934;1263;1004712;-73
2023/02/02 00:03:51;;;;;;;8.20;5.30;;;;;;;-128.00;-1.00;-1.00;104822;1264;1005210;-72
2023/02/02 00:06:20;;;;;;;7.80;5.40;;;;;;;-128.00;-1.00;-1.00;104927;1264;1062861;-72
2023/02/02 00:08:48;;;;;;;9.50;6.00;;;;;;;-128.00;-1.00;-1.00;104903;1263;1055385;-72
2023/02/02 00:11:15;;;;;;;11.90;6.00;;;;;;;-128.00;-1.00;-1.00;104918;1264;1004025;-73
2023/02/02 00:13:43;;;;;;;8.90;5.70;;;;;;;-128.00;-1.00;-1.00;104900;1264;1004646;-72
2023/02/02 00:16:24;;;;;;;8.10;5.30;;;;;;;-128.00;-1.00;-1.00;104943;1264;1004370;-72
2023/02/02 00:18:59;;;;;;;8.30;5.80;;;;;;;-128.00;-1.00;-1.00;104913;1263;1061952;-72
2023/02/02 00:21:27;;;;;;;9.00;5.60;;;;;;;-128.00;-1.00;-1.00;104904;1264;1055711;-79
2023/02/02 00:23:54;;;;;;;8.90;5.90;;;;;;;-128.00;-1.00;-1.00;104888;1264;1004203;-79
2023/02/02 00:26:20;;;;;;;11.10;7.60;;;;;;;-128.00;-1.00;-1.00;104958;1264;1004173;-79
2023/02/02 00:28:47;;;;;;;8.00;5.80;;;;;;;-128.00;-1.00;-1.00;104748;1264;1003686;-79
2023/02/02 00:31:14;;;;;;;7.30;6.10;;;;;;;-128.00;-1.00;-1.00;104933;1263;1004509;-78
2023/02/02 00:33:48;;;;;;;7.20;4.70;;;;;;;-128.00;-1.00;-1.00;104911;1263;1004373;-78
2023/02/02 00:36:16;;;;;;;12.40;5.80;;;;;;;-128.00;-1.00;-1.00;104898;1264;1059567;-78
2023/02/02 00:38:43;;;;;;;7.80;5.30;;;;;;;-128.00;-1.00;-1.00;104734;1264;1005332;-79
2023/02/02 00:41:10;;;;;;;8.40;5.40;;;;;;;-128.00;-1.00;-1.00;104842;1264;1004127;-80
2023/02/02 00:43:36;;;;;;;7.70;5.80;;;;;;;-128.00;-1.00;-1.00;104920;1264;1004520;-77
2023/02/02 00:46:03;;;;;;;9.60;5.80;;;;;;;-128.00;-1.00;-1.00;104934;1264;1004364;-78
2023/02/02 00:48:30;;;;;;;7.10;6.30;;;;;;;-128.00;-1.00;-1.00;104818;1264;1004644;-78
2023/02/02 00:50:57;;;;;;;8.00;5.70;;;;;;;-128.00;-1.00;-1.00;104830;1264;1004468;-78
2023/02/02 00:53:24;;;;;;;9.40;6.60;;;;;;;-128.00;-1.00;-1.00;104896;1264;1004332;-78
2023/02/02 00:55:50;;;;;;;8.40;6.00;;;;;;;-128.00;-1.00;-1.00;104946;1264;1004204;-79
2023/02/02 00:58:17;;;;;;;8.20;6.50;;;;;;;-128.00;-1.00;-1.00;104924;1264;1003552;-79
2023/02/02 01:00:44;;;;;;;10.30;7.40;;;;;;;-128.00;-1.00;-1.00;104919;1264;1004290;-80
2023/02/02 01:03:12;;;;;;;9.70;6.60;;;;;;;-128.00;-1.00;-1.00;104846;1264;1005010;-78
2023/02/02 01:05:39;;;;;;;6.00;5.30;;;;;;;-128.00;-1.00;-1.00;104911;1264;1004303;-79
2023/02/02 01:08:06;;;;;;;9.00;6.50;;;;;;;-128.00;-1.00;-1.00;104929;1264;1004708;-77
2023/02/02 01:10:33;;;;;;;7.20;5.40;;;;;;;-128.00;-1.00;-1.00;104857;1263;1004741;-78
2023/02/02 01:13:00;;;;;;;9.50;6.50;;;;;;;-128.00;-1.00;-1.00;104908;1264;1003985;-78
2023/02/02 01:15:29;;;;;;;8.80;5.50;;;;;;;-128.00;-1.00;-1.00;104927;1264;1003280;-79
2023/02/02 01:17:56;;;;;;;7.40;5.60;;;;;;;-128.00;-1.00;-1.00;104937;1264;1047434;-79
2023/02/02 01:20:23;;;;;;;8.30;6.20;;;;;;;-128.00;-1.00;-1.00;104836;1264;1005019;-79
2023/02/02 01:22:50;;;;;;;5.80;4.80;;;;;;;-128.00;-1.00;-1.00;104959;1263;1003637;-78
2023/02/02 01:25:17;;;;;;;6.40;5.20;;;;;;;-128.00;-1.00;-1.00;104896;1264;1004436;-78
2023/02/02 01:27:44;;;;;;;6.00;5.40;;;;;;;-128.00;-1.00;-1.00;104906;1263;1004536;-77
2023/02/02 01:30:11;;;;;;;6.80;4.80;;;;;;;-128.00;-1.00;-1.00;104952;1264;1004417;-78
2023/02/02 01:32:37;;;;;;;10.70;6.10;;;;;;;-128.00;-1.00;-1.00;104785;1264;1004977;-79
2023/02/02 01:35:04;;;;;;;9.60;5.60;;;;;;;-128.00;-1.00;-1.00;104835;1264;1004606;-78
2023/02/02 01:37:31;;;;;;;5.90;4.90;;;;;;;-128.00;-1.00;-1.00;104904;1264;1004494;-79
2023/02/02 01:39:58;;;;;;;7.20;4.90;;;;;;;-128.00;-1.00;-1.00;104934;1264;1004978;-79
2023/02/02 01:42:25;;;;;;;6.70;4.70;;;;;;;-128.00;-1.00;-1.00;104941;1263;1005021;-79
2023/02/02 01:44:52;;;;;;;6.20;5.40;;;;;;;-128.00;-1.00;-1.00;104940;1264;1004226;-80
2023/02/02 01:47:22;;;;;;;7.60;5.40;;;;;;;-128.00;-1.00;-1.00;104927;1264;1003929;-79
2023/02/02 01:49:49;;;;;;;6.20;5.40;;;;;;;-128.00;-1.00;-1.00;104907;1264;1059052;-79
2023/02/02 01:52:18;;;;;;;7.00;5.30;;;;;;;-128.00;-1.00;-1.00;104924;1264;1004240;-82
2023/02/02 01:54:52;;;;;;;8.40;7.20;;;;;;;-128.00;-1.00;-1.00;104771;1264;1046970;-80
2023/02/02 01:57:39;;;;;;;7.90;7.00;;;;;;;-128.00;-1.00;-1.00;104844;1263;1062392;-79
2023/02/02 02:00:10;;;;;;;9.70;6.40;;;;;;;-128.00;-1.00;-1.00;104815;1264;1055498;-81
2023/02/02 02:02:38;;;;;;;11.40;6.70;;;;;;;-128.00;-1.00;-1.00;104946;1264;1060119;-80
2023/02/02 02:05:06;;;;;;;8.00;6.80;;;;;;;-128.00;-1.00;-1.00;104759;1264;1004704;-77
2023/02/02 02:07:33;;;;;;;6.80;6.00;;;;;;;-128.00;-1.00;-1.00;104925;1263;1004226;-77
2023/02/02 02:10:00;;;;;;;7.80;5.30;;;;;;;-128.00;-1.00;-1.00;104922;1264;1004353;-80
2023/02/02 02:12:26;;;;;;;8.10;6.00;;;;;;;-128.00;-1.00;-1.00;104840;1263;1004136;-79
2023/02/02 02:18:03;;;;;;;6.90;5.40;;;;;;;-128.00;-1.00;-1.00;104908;1264;1045512;-80
2023/02/02 02:27:07;;;;;;;8.90;6.20;;;;;;;-128.00;-1.00;-1.00;104956;1264;1054995;-78
2023/02/02 02:29:40;;;;;;;7.90;6.70;;;;;;;-128.00;-1.00;-1.00;104917;1264;1059949;-79
2023/02/02 02:32:30;;;;;;;9.80;7.10;;;;;;;-128.00;-1.00;-1.00;104927;1264;1045652;-78
2023/02/02 02:35:11;;;;;;;8.80;7.30;;;;;;;-128.00;-1.00;-1.00;104860;1264;1047443;-79
2023/02/02 02:37:53;;;;;;;9.40;6.50;;;;;;;-128.00;-1.00;-1.00;104838;1264;1061698;-78
2023/02/02 02:40:44;;;;;;;9.60;7.20;;;;;;;-128.00;-1.00;-1.00;104954;1263;1055794;-78
2023/02/02 02:43:17;;;;;;;8.40;6.70;;;;;;;-128.00;-1.00;-1.00;104900;1264;1059837;-78
2023/02/02 02:45:45;;;;;;;9.50;7.40;;;;;;;-128.00;-1.00;-1.00;104921;1264;1045059;-77
2023/02/02 02:48:11;;;;;;;8.70;6.70;;;;;;;-128.00;-1.00;-1.00;104948;1263;1004541;-78
2023/02/02 02:50:38;;;;;;;8.90;5.50;;;;;;;-128.00;-1.00;-1.00;104820;1264;1003626;-79
2023/02/02 02:53:10;;;;;;;8.60;6.10;;;;;;;-128.00;-1.00;-1.00;104944;1264;1004744;-78
2023/02/02 02:55:54;;;;;;;9.10;6.60;;;;;;;-128.00;-1.00;-1.00;104917;1264;1059283;-78
2023/02/02 02:58:40;;;;;;;6.50;5.60;;;;;;;-128.00;-1.00;-1.00;104947;1264;1046142;-78
2023/02/02 03:01:16;;;;;;;7.20;5.60;;;;;;;-128.00;-1.00;-1.00;104934;1263;1048321;-79
2023/02/02 03:04:01;;;;;;;8.50;6.00;;;;;;;-128.00;-1.00;-1.00;104940;1264;1062134;-78
2023/02/02 03:07:16;;;;;;;12.00;8.70;;;;;;;-128.00;-1.00;-1.00;104815;1264;1056776;-79
2023/02/02 03:09:45;;;;;;;10.20;8.20;;;;;;;-128.00;-1.00;-1.00;104520;1269;1059245;-79
2023/02/02 03:12:12;;;;;;;10.60;7.40;;;;;;;-128.00;-1.00;-1.00;104579;1269;1045625;-79
2023/02/02 03:14:38;;;;;;;14.40;9.90;;;;;;;-128.00;-1.00;-1.00;104446;1269;1005726;-79
2023/02/02 03:17:05;;;;;;;11.60;9.70;;;;;;;-128.00;-1.00;-1.00;104544;1269;1003802;-79
2023/02/02 03:19:32;;;;;;;11.70;8.90;;;;;;;-128.00;-1.00;-1.00;104534;1269;1004405;-78
2023/02/02 03:21:59;;;;;;;10.50;9.40;;;;;;;-128.00;-1.00;-1.00;104546;1269;1004002;-79
2023/02/02 03:24:25;;;;;;;9.80;6.70;;;;;;;-128.00;-1.00;-1.00;104557;1269;1004177;-79
2023/02/02 03:26:52;;;;;;;9.90;6.20;;;;;;;-128.00;-1.00;-1.00;104424;1269;1003744;-78
2023/02/02 03:29:19;;;;;;;8.70;5.60;;;;;;;-128.00;-1.00;-1.00;104590;1269;1004171;-78
2023/02/02 03:31:46;;;;;;;9.90;5.30;;;;;;;-128.00;-1.00;-1.00;104546;1269;1003870;-79
2023/02/02 03:34:12;;;;;;;7.10;4.90;;;;;;;-128.00;-1.00;-1.00;104424;1269;1003837;-80
2023/02/02 03:36:39;;;;;;;9.30;5.90;;;;;;;-128.00;-1.00;-1.00;103482;1270;1003937;-79
2023/02/02 03:39:06;;;;;;;9.30;5.00;;;;;;;-128.00;-1.00;-1.00;104586;1269;1004208;-79
2023/02/02 03:41:32;;;;;;;7.40;4.30;;;;;;;-128.00;-1.00;-1.00;104539;1269;1003812;-79
2023/02/02 03:43:59;;;;;;;8.10;4.80;;;;;;;-128.00;-1.00;-1.00;104242;1269;1004264;-79
2023/02/02 03:46:26;;;;;;;10.00;4.80;;;;;;;-128.00;-1.00;-1.00;104715;1264;1004025;-79
2023/02/02 03:48:53;;;;;;;6.30;3.90;;;;;;;-128.00;-1.00;-1.00;104925;1263;1004798;-79
2023/02/02 03:51:21;;;;;;;6.60;3.80;;;;;;;-128.00;-1.00;-1.00;104940;1264;1004028;-79
2023/02/02 03:53:48;;;;;;;8.00;4.00;;;;;;;-128.00;-1.00;-1.00;104938;1264;1003720;-79
2023/02/02 03:56:15;;;;;;;7.40;3.80;;;;;;;-128.00;-1.00;-1.00;104935;1264;1004403;-78
2023/02/02 03:58:42;;;;;;;6.30;3.50;;;;;;;-128.00;-1.00;-1.00;104911;1264;1004103;-79
2023/02/02 04:01:11;;;;;;;7.30;4.20;;;;;;;-128.00;-1.00;-1.00;104932;1264;1004809;-79
2023/02/02 04:03:38;;;;;;;6.00;3.40;;;;;;;-128.00;-1.00;-1.00;104958;1263;1047187;-78
2023/02/02 04:06:05;;;;;;;7.70;4.00;;;;;;;-128.00;-1.00;-1.00;104930;1263;1003920;-79
2023/02/02 04:08:32;;;;;;;8.70;4.60;;;;;;;-128.00;-1.00;-1.00;104938;1263;1004472;-80
2023/02/02 04:10:59;;;;;;;10.30;4.90;;;;;;;-128.00;-1.00;-1.00;104893;1263;1004834;-81
2023/02/02 04:13:26;;;;;;;9.80;4.30;;;;;;;-128.00;-1.00;-1.00;104917;1264;1003427;-79
2023/02/02 04:15:59;;;;;;;10.50;4.30;;;;;;;-128.00;-1.00;-1.00;104943;1263;1004518;-79
2023/02/02 04:18:27;;;;;;;15.50;4.60;;;;;;;-128.00;-1.00;-1.00;104946;1264;1063026;-79
2023/02/02 04:20:58;;;;;;;9.80;4.00;;;;;;;-128.00;-1.00;-1.00;104960;1264;1005148;-80
2023/02/02 04:23:27;;;;;;;7.60;2.90;;;;;;;-128.00;-1.00;-1.00;104894;1263;1059368;-80
2023/02/02 04:25:54;;;;;;;13.40;4.50;;;;;;;-128.00;-1.00;-1.00;104855;1264;1004446;-80
2023/02/02 04:28:22;;;;;;;10.90;3.90;;;;;;;-128.00;-1.00;-1.00;104864;1264;1004558;-79
2023/02/02 04:30:51;;;;;;;11.60;4.40;;;;;;;-128.00;-1.00;-1.00;104937;1263;1062101;-80
2023/02/02 04:33:18;;;;;;;10.90;4.20;;;;;;;-128.00;-1.00;-1.00;104917;1264;1004443;-79
2023/02/02 04:35:44;;;;;;;9.20;3.70;;;;;;;-128.00;-1.00;-1.00;104934;1264;1004897;-80
2023/02/02 04:38:11;;;;;;;8.80;3.10;;;;;;;-128.00;-1.00;-1.00;104964;1263;1004239;-79
2023/02/02 04:40:40;;;;;;;10.40;3.90;;;;;;;-128.00;-1.00;-1.00;104853;1264;1004973;-79
2023/02/02 04:43:07;;;;;;;11.40;3.60;;;;;;;-128.00;-1.00;-1.00;104954;1264;1004025;-79
2023/02/02 04:45:34;;;;;;;11.80;4.70;;;;;;;-128.00;-1.00;-1.00;104939;1264;1003858;-77
2023/02/02 04:48:01;;;;;;;10.80;4.00;;;;;;;-128.00;-1.00;-1.00;104938;1264;1004726;-77
2023/02/02 04:50:28;;;;;;;8.90;5.10;;;;;;;-128.00;-1.00;-1.00;104768;1265;1003727;-79
2023/02/02 04:52:55;;;;;;;8.40;4.80;;;;;;;-128.00;-1.00;-1.00;104931;1264;1004308;-78
2023/02/02 04:55:22;;;;;;;8.80;4.80;;;;;;;-128.00;-1.00;-1.00;104794;1264;1005013;-82
2023/02/02 04:57:49;;;;;;;10.40;4.90;;;;;;;-128.00;-1.00;-1.00;104826;1264;1004908;-79
2023/02/02 05:00:16;;;;;;;8.20;4.30;;;;;;;-128.00;-1.00;-1.00;104942;1263;1004173;-79
2023/02/02 05:02:43;;;;;;;8.90;4.20;;;;;;;-128.00;-1.00;-1.00;104954;1264;1004864;-79
2023/02/02 05:05:12;;;;;;;8.40;3.80;;;;;;;-128.00;-1.00;-1.00;104963;1263;1004121;-79
2023/02/02 05:07:39;;;;;;;6.50;3.60;;;;;;;-128.00;-1.00;-1.00;104945;1263;1062478;-79
2023/02/02 05:10:07;;;;;;;7.80;3.50;;;;;;;-128.00;-1.00;-1.00;104940;1263;1003754;-78
2023/02/02 05:12:34;;;;;;;11.60;3.30;;;;;;;-128.00;-1.00;-1.00;104741;1263;1003954;-79
2023/02/02 05:15:02;;;;;;;6.80;3.50;;;;;;;-128.00;-1.00;-1.00;104941;1264;1005172;-79
2023/02/02 05:17:29;;;;;;;5.00;3.70;;;;;;;-128.00;-1.00;-1.00;104978;1264;1004479;-79
2023/02/02 05:19:56;;;;;;;9.10;4.00;;;;;;;-128.00;-1.00;-1.00;104941;1264;1004230;-78
2023/02/02 05:22:23;;;;;;;8.80;3.60;;;;;;;-128.00;-1.00;-1.00;104874;1264;1004404;-82
2023/02/02 05:24:49;;;;;;;8.00;3.80;;;;;;;-128.00;-1.00;-1.00;104940;1264;1004029;-81
2023/02/02 05:27:16;;;;;;;6.90;3.60;;;;;;;-128.00;-1.00;-1.00;104939;1264;1004010;-82
2023/02/02 05:29:42;;;;;;;7.60;3.80;;;;;;;-128.00;-1.00;-1.00;104967;1263;1003368;-81
2023/02/02 05:32:09;;;;;;;6.90;4.20;;;;;;;-128.00;-1.00;-1.00;104971;1263;1005050;-80
2023/02/02 05:34:36;;;;;;;9.20;5.20;;;;;;;-128.00;-1.00;-1.00;104776;1263;1004390;-80
2023/02/02 05:37:02;;;;;;;9.30;4.80;;;;;;;-128.00;-1.00;-1.00;104932;1263;1004483;-82
2023/02/02 05:39:29;;;;;;;13.20;5.70;;;;;;;-128.00;-1.00;-1.00;104943;1264;1003910;-81
2023/02/02 05:41:55;;;;;;;10.70;5.70;;;;;;;-128.00;-1.00;-1.00;104950;1263;1005223;-81
2023/02/02 05:44:22;;;;;;;10.40;4.50;;;;;;;-128.00;-1.00;-1.00;104955;1263;1004109;-82
2023/02/02 05:46:49;;;;;;;8.70;3.80;;;;;;;-128.00;-1.00;-1.00;104956;1264;1003595;-82
2023/02/02 05:49:15;;;;;;;9.50;4.40;;;;;;;-128.00;-1.00;-1.00;104936;1264;1004091;-81
2023/02/02 05:51:47;;;;;;;8.90;3.80;;;;;;;-128.00;-1.00;-1.00;104928;1263;1004419;-81
2023/02/02 05:54:18;;;;;;;6.30;3.70;;;;;;;-128.00;-1.00;-1.00;104838;1264;1046504;-81
2023/02/02 05:56:51;;;;;;;5.90;3.70;;;;;;;-128.00;-1.00;-1.00;104958;1264;1062339;-81
2023/02/02 05:59:18;;;;;;;9.30;3.60;;;;;;;-128.00;-1.00;-1.00;105070;1264;1056835;-82
2023/02/02 06:01:45;;;;;;;8.10;4.60;;;;;;;-128.00;-1.00;-1.00;105035;1264;1004963;-81
2023/02/02 06:04:13;;;;;;;9.20;3.60;;;;;;;-128.00;-1.00;-1.00;104890;1264;1004857;-80
2023/02/02 06:06:41;;;;;;;6.60;3.90;;;;;;;-128.00;-1.00;-1.00;104981;1263;1004357;-82
2023/02/02 06:09:07;;;;;;;9.10;3.50;;;;;;;-128.00;-1.00;-1.00;104905;1264;1004139;-80
2023/02/02 06:11:34;;;;;;;8.30;3.20;;;;;;;-128.00;-1.00;-1.00;104777;1264;1004096;-80
2023/02/02 06:14:01;;;;;;;5.60;3.20;;;;;;;-128.00;-1.00;-1.00;104973;1264;1003344;-80
2023/02/02 06:16:27;;;;;;;8.40;3.60;;;;;;;-128.00;-1.00;-1.00;104939;1264;1003454;-81
2023/02/02 06:18:54;;;;;;;4.80;2.90;;;;;;;-128.00;-1.00;-1.00;104976;1264;1003938;-81
2023/02/02 06:21:24;;;;;;;6.50;3.30;;;;;;;-128.00;-1.00;-1.00;104463;1264;1004244;-82
2023/02/02 06:23:51;;;;;;;7.10;3.00;;;;;;;-128.00;-1.00;-1.00;104979;1263;1055440;-81
2023/02/02 06:26:18;;;;;;;6.50;3.20;;;;;;;-128.00;-1.00;-1.00;104878;1264;1004413;-82
2023/02/02 06:28:51;;;;;;;7.90;4.50;;;;;;;-128.00;-1.00;-1.00;104843;1267;1003962;-82
2023/02/02 06:31:19;;;;;;;7.90;3.60;;;;;;;-128.00;-1.00;-1.00;104552;1264;1048333;-82
2023/02/02 06:33:47;;;;;;;8.50;4.10;;;;;;;-128.00;-1.00;-1.00;104865;1264;1003996;-81
2023/02/02 06:36:14;;;;;;;7.30;4.50;;;;;;;-128.00;-1.00;-1.00;104845;1265;1003630;-81
2023/02/02 06:38:40;;;;;;;8.20;4.10;;;;;;;-128.00;-1.00;-1.00;104966;1264;1005006;-81
2023/02/02 06:41:07;;;;;;;10.80;4.30;;;;;;;-128.00;-1.00;-1.00;104937;1264;1004514;-81
2023/02/02 06:43:34;;;;;;;7.00;3.60;;;;;;;-128.00;-1.00;-1.00;104962;1264;1004658;-81
2023/02/02 06:46:00;;;;;;;8.50;4.40;;;;;;;-128.00;-1.00;-1.00;104967;1264;1004593;-81
2023/02/02 06:48:27;;;;;;;7.70;4.30;;;;;;;-128.00;-1.00;-1.00;104752;1264;1003536;-82
2023/02/02 06:50:58;;;;;;;8.30;4.60;;;;;;;-128.00;-1.00;-1.00;104928;1264;1003761;-82
2023/02/02 06:53:25;;;;;;;7.60;4.40;;;;;;;-128.00;-1.00;-1.00;104917;1264;1045806;-83
2023/02/02 06:55:57;;;;;;;9.40;4.50;;;;;;;-128.00;-1.00;-1.00;104704;1268;1005084;-81
2023/02/02 06:58:25;;;;;;;7.10;4.00;;;;;;;-128.00;-1.00;-1.00;104449;1269;1062322;-81
2023/02/02 07:00:51;;;;;;;8.80;3.60;;;;;;;-128.00;-1.00;-1.00;104743;1267;1004515;-82
2023/02/02 07:03:22;;;;;;;9.10;3.30;;;;;;;-128.00;-1.00;-1.00;104746;1268;1003995;-82
2023/02/02 07:05:49;;;;;;;4.90;2.80;;;;;;;-128.00;-1.00;-1.00;104648;1268;1045817;-82
2023/02/02 07:08:16;;;;;;;5.80;2.70;;;;;;;-128.00;-1.00;-1.00;104739;1268;1004503;-82
2023/02/02 07:10:43;;;;;;;7.50;3.30;;;;;;;-128.00;-1.00;-1.00;104748;1268;1004259;-81
2023/02/02 07:13:10;;;;;;;9.20;4.60;;;;;;;-128.00;-1.00;-1.00;104753;1268;1004589;-81
2023/02/02 07:15:40;;;;;;;10.50;4.30;;;;;;;-128.00;-1.00;-1.00;104748;1268;1003297;-83
2023/02/02 07:18:07;;;;;;;7.70;3.60;;;;;;;-128.00;-1.00;-1.00;104711;1268;1045467;-82
2023/02/02 07:20:33;;;;;;;9.20;4.50;;;;;;;-128.00;-1.00;-1.00;104756;1268;1003819;-82
2023/02/02 07:23:03;;;;;;;11.60;3.90;;;;;;;-128.00;-1.00;-1.00;104762;1268;1004783;-83
2023/02/02 07:25:29;;;;;;;8.10;4.00;;;;;;;-128.00;-1.00;-1.00;104764;1268;1055934;-83
2023/02/02 07:27:56;;;;;;;7.50;4.30;;;;;;;-128.00;-1.00;-1.00;104753;1268;1004712;-83
2023/02/02 07:30:24;;;;;;;11.40;4.50;;;;;;;-128.00;-1.00;-1.00;104592;1268;1004793;-83
2023/02/02 07:32:50;;;;;;;8.50;3.70;;;;;;;-128.00;-1.00;-1.00;104795;1264;1005235;-82
2023/02/02 07:35:17;;;;;;;7.50;4.60;;;;;;;-128.00;-1.00;-1.00;103468;1264;1003849;-84
2023/02/02 07:37:50;;;;;;;9.70;5.50;;;;;;;-128.00;-1.00;-1.00;104978;1264;1004686;-82
2023/02/02 07:40:17;;;;;;;6.90;3.90;;;;;;;-128.00;-1.00;-1.00;104942;1264;1060289;-84
2023/02/02 07:42:45;;;;;;;9.30;3.80;;;;;;;-128.00;-1.00;-1.00;104965;1264;1004870;-83
2023/02/02 07:45:13;;;;;;;9.00;4.20;;;;;;;-128.00;-1.00;-1.00;104955;1263;1046100;-84
2023/02/02 07:47:40;;;;;;;13.60;4.80;;;;;;;-128.00;-1.00;-1.00;105023;1264;1004757;-82
2023/02/02 07:50:07;;;;;;;9.70;3.70;;;;;;;-128.00;-1.00;-1.00;105010;1264;1003890;-83
2023/02/02 07:52:33;;;;;;;9.00;4.20;;;;;;;-128.00;-1.00;-1.00;104764;1264;1004656;-83
2023/02/02 07:55:00;;;;;;;8.10;5.00;;;;;;;-128.00;-1.00;-1.00;104915;1264;1004223;-82
2023/02/02 07:57:27;;;;;;;8.30;4.10;;;;;;;-128.00;-1.00;-1.00;104988;1263;1003976;-82
2023/02/02 07:59:54;;;;;;;9.70;5.10;;;;;;;-128.00;-1.00;-1.00;104961;1264;1004473;-83
2023/02/02 08:02:21;;;;;;;6.70;3.90;;;;;;;-128.00;-1.00;-1.00;104968;1263;1004266;-83
2023/02/02 08:04:48;;;;;;;5.60;3.90;;;;;;;-128.00;-1.00;-1.00;104104;1264;1004876;-82
2023/02/02 08:07:15;;;;;;;7.70;3.30;;;;;;;-128.00;-1.00;-1.00;104966;1264;1004620;-83
2023/02/02 08:09:45;;;;;;;7.60;3.30;;;;;;;-128.00;-1.00;-1.00;104949;1264;1003905;-83
2023/02/02 08:12:12;;;;;;;6.70;3.00;;;;;;;-128.00;-1.00;-1.00;104915;1264;1062772;-83
2023/02/02 08:14:39;;;;;;;6.30;2.70;;;;;;;-128.00;-1.00;-1.00;104780;1264;1005073;-82
2023/02/02 08:17:06;;;;;;;8.80;3.90;;;;;;;-128.00;-1.00;-1.00;104945;1264;1004217;-84
2023/02/02 08:19:33;;;;;;;8.50;3.50;;;;;;;-128.00;-1.00;-1.00;104954;1264;1003584;-82
2023/02/02 08:21:59;;;;;;;8.80;3.90;;;;;;;-128.00;-1.00;-1.00;104971;1263;1004424;-84
2023/02/02 08:24:26;;;;;;;12.40;4.50;;;;;;;-128.00;-1.00;-1.00;104765;1264;1006278;-82
2023/02/02 08:26:53;;;;;;;9.90;4.70;;;;;;;-128.00;-1.00;-1.00;104918;1264;1004911;-82
2023/02/02 08:29:20;;;;;;;8.80;3.70;;;;;;;-128.00;-1.00;-1.00;104936;1264;1003961;-83
2023/02/02 08:31:46;;;;;;;7.30;3.30;;;;;;;-128.00;-1.00;-1.00;104953;1263;1004442;-83
2023/02/02 08:34:13;;;;;;;8.30;3.80;;;;;;;-128.00;-1.00;-1.00;104855;1264;1004618;-83
2023/02/02 08:36:40;;;;;;;8.30;3.40;;;;;;;-128.00;-1.00;-1.00;104974;1264;1004618;-83
2023/02/02 08:39:11;;;;;;;7.40;4.10;;;;;;;-128.00;-1.00;-1.00;104957;1264;1004283;-84
2023/02/02 08:41:38;;;;;;;9.30;3.60;;;;;;;-128.00;-1.00;-1.00;104849;1264;1059796;-84
2023/02/02 08:44:08;;;;;;;7.30;3.60;;;;;;;-128.00;-1.00;-1.00;104922;1264;1004096;-83
2023/02/02 08:46:35;;;;;;;7.10;3.20;;;;;;;-128.00;-1.00;-1.00;104898;1264;1046388;-85
2023/02/02 08:49:02;;;;;;;8.00;4.20;;;;;;;-128.00;-1.00;-1.00;104922;1264;1004915;-84
2023/02/02 08:51:29;;;;;;;7.60;3.50;;;;;;;-128.00;-1.00;-1.00;104683;1264;1003240;-84
2023/02/02 08:53:55;;;;;;;10.00;4.60;;;;;;;-128.00;-1.00;-1.00;104953;1265;1003778;-84
2023/02/02 08:56:23;;;;;;;7.00;3.50;;;;;;;-128.00;-1.00;-1.00;104950;1264;1004126;-83
2023/02/02 08:58:57;;;;;;;9.10;4.30;;;;;;;-128.00;-1.00;-1.00;104956;1264;1004413;-84
2023/02/02 09:01:26;;;;;;;8.90;3.60;;;;;;;-128.00;-1.00;-1.00;104934;1263;1061435;-84
2023/02/02 09:03:58;;;;;;;10.20;3.40;;;;;;;-128.00;-1.00;-1.00;104968;1264;1056191;-82
2023/02/02 09:06:32;;;;;;;8.50;4.20;;;;;;;-128.00;-1.00;-1.00;104744;1263;1059669;-83
2023/02/02 09:08:59;;;;;;;8.10;3.70;;;;;;;-128.00;-1.00;-1.00;104872;1264;1044851;-83
2023/02/02 09:11:26;;;;;;;7.10;3.80;;;;;;;-128.00;-1.00;-1.00;104987;1264;1004724;-84
2023/02/02 09:13:55;;;;;;;7.20;3.60;;;;;;;-128.00;-1.00;-1.00;104938;1267;1004606;-84
2023/02/02 09:16:23;;;;;;;12.80;5.60;;;;;;;-128.00;-1.00;-1.00;104966;1264;1055508;-82
2023/02/02 09:18:50;;;;;;;7.50;4.80;;;;;;;-128.00;-1.00;-1.00;103911;1268;1003434;-82
2023/02/02 09:21:18;;;;;;;9.50;4.10;;;;;;;-128.00;-1.00;-1.00;104725;1268;1004185;-84
2023/02/02 09:23:47;;;;;;;9.50;3.30;;;;;;;-128.00;-1.00;-1.00;104755;1268;1003923;-83
2023/02/02 09:26:20;;;;;;;8.10;3.10;;;;;;;-128.00;-1.00;-1.00;104355;1269;1062043;-82
2023/02/02 09:28:50;;;;;;;7.50;3.50;;;;;;;-128.00;-1.00;-1.00;103868;1269;1054678;-83
2023/02/02 09:31:17;;;;;;;11.30;4.10;;;;;;;-128.00;-1.00;-1.00;104714;1268;1059606;-84
2023/02/02 09:33:44;;;;;;;10.60;4.50;;;;;;;-128.00;-1.00;-1.00;104634;1269;1004573;-82
2023/02/02 09:36:17;;;;;;;13.60;5.70;;;;;;;-128.00;-1.00;-1.00;104721;1268;1003862;-82
2023/02/02 09:38:45;;;;;;;11.00;4.60;;;;;;;-128.00;-1.00;-1.00;104704;1267;1062026;-82
2023/02/02 09:41:20;;;;;;;16.00;5.60;;;;;;;-128.00;-1.00;-1.00;104710;1268;1003893;-82
2023/02/02 09:43:57;;;;;;;11.30;4.60;;;;;;;-128.00;-1.00;-1.00;104716;1268;1060089;-82
2023/02/02 09:47:02;;;;;;;11.50;4.70;;;;;;;-128.00;-1.00;-1.00;104700;1268;1044678;-84
2023/02/02 09:49:54;;;;;;;11.20;5.10;;;;;;;-128.00;-1.00;-1.00;104103;1271;1047041;-83
2023/02/02 09:52:41;;;;;;;9.50;5.70;;;;;;;-128.00;-1.00;-1.00;104374;1270;1062745;-83
2023/02/02 09:55:29;;;;;;;10.10;5.20;;;;;;;-128.00;-1.00;-1.00;104243;1271;1055924;-84
2023/02/02 09:58:04;;;;;;;12.90;6.20;;;;;;;-128.00;-1.00;-1.00;104308;1270;1059819;-82
2023/02/02 10:00:35;;;;;;;11.90;5.40;;;;;;;-128.00;-1.00;-1.00;104343;1271;1045712;-82
2023/02/02 10:03:13;;;;;;;12.70;5.30;;;;;;;-128.00;-1.00;-1.00;104221;1271;1046634;-81
2023/02/02 10:06:00;;;;;;;11.50;5.50;;;;;;;-128.00;-1.00;-1.00;104372;1271;1061932;-80
2023/02/02 10:08:43;;;;;;;11.20;5.20;;;;;;;-128.00;-1.00;-1.00;104227;1273;1055689;-83
2023/02/02 10:11:35;;;;;;;10.30;5.70;;;;;;;-128.00;-1.00;-1.00;103478;1274;1058294;-84
2023/02/02 10:14:10;;;;;;;8.10;5.60;;;;;;;-128.00;-1.00;-1.00;104292;1273;1045100;-83
2023/02/02 10:16:39;;;;;;;13.10;5.20;;;;;;;-128.00;-1.00;-1.00;104022;1273;1046314;-82
2023/02/02 10:19:12;;;;;;;7.30;4.50;;;;;;;-128.00;-1.00;-1.00;104495;1269;1062288;-82
2023/02/02 10:22:15;;;;;;;11.10;5.00;;;;;;;-128.00;-1.00;-1.00;104540;1269;1056713;-83
2023/02/02 10:24:42;;;;;;;10.90;6.10;;;;;;;-128.00;-1.00;-1.00;104410;1270;1059585;-82
2023/02/02 10:27:14;;;;;;;11.50;5.50;;;;;;;-128.00;-1.00;-1.00;104738;1264;1004116;-82
2023/02/02 10:30:00;;;;;;;11.60;5.80;;;;;;;-128.00;-1.00;-1.00;104959;1264;1046805;-82
2023/02/02 10:32:34;;;;;;;9.50;6.40;;;;;;;-128.00;-1.00;-1.00;104935;1264;1062361;-83
2023/02/02 10:35:19;;;;;;;14.20;7.00;;;;;;;-128.00;-1.00;-1.00;104932;1264;1056427;-82
2023/02/02 10:37:55;;;;;;;11.20;6.30;;;;;;;-128.00;-1.00;-1.00;104900;1264;1059278;-81
2023/02/02 10:40:54;;;;;;;9.50;6.20;;;;;;;-128.00;-1.00;-1.00;104896;1264;1044743;-82
2023/02/02 10:43:45;;;;;;;13.90;8.30;;;;;;;-128.00;-1.00;-1.00;104935;1264;1046964;-81
2023/02/02 10:46:24;;;;;;;12.80;6.70;;;;;;;-128.00;-1.00;-1.00;104925;1264;1061932;-82
2023/02/02 10:49:10;;;;;;;14.00;8.60;;;;;;;-128.00;-1.00;-1.00;104858;1265;1055850;-82
2023/02/02 10:51:36;;;;;;;12.40;6.60;;;;;;;-128.00;-1.00;-1.00;104883;1264;1058540;-83
2023/02/02 10:54:43;;;;;;;11.30;6.00;;;;;;;-128.00;-1.00;-1.00;104900;1264;1003530;-84
2023/02/02 10:57:16;;;;;;;8.20;5.60;;;;;;;-128.00;-1.00;-1.00;104928;1266;1047239;-82
2023/02/02 10:59:57;;;;;;;6.80;3.70;;;;;;;-128.00;-1.00;-1.00;104929;1264;1062738;-83
2023/02/02 11:02:23;;;;;;;6.40;4.00;;;;;;;-128.00;-1.00;-1.00;104942;1264;1055847;-82
2023/02/02 11:07:36;;;;;;;5.00;3.20;;;;;;;-128.00;-1.00;-1.00;104925;1264;1045473;-80
2023/02/02 11:10:03;;;;;;;6.50;4.40;;;;;;;-128.00;-1.00;-1.00;104919;1264;1005039;-82
2023/02/02 11:12:33;;;;;;;6.20;4.40;;;;;;;-128.00;-1.00;-1.00;104933;1264;1003551;-82
2023/02/02 11:15:06;;;;;;;9.60;4.80;;;;;;;-128.00;-1.00;-1.00;104943;1264;1055465;-82
2023/02/02 11:17:34;;;;;;;7.30;5.40;;;;;;;-128.00;-1.00;-1.00;104700;1264;1059961;-80
2023/02/02 11:20:30;;;;;;;4.40;4.00;;;;;;;-128.00;-1.00;-1.00;104671;1264;1005032;-78
2023/02/02 11:23:02;;;;;;;5.40;4.50;;;;;;;-128.00;-1.00;-1.00;104773;1264;1047574;-77
2023/02/02 11:25:33;;;;;;;6.80;4.80;;;;;;;-128.00;-1.00;-1.00;104926;1264;1062176;-77
2023/02/02 11:28:12;;;;;;;5.80;4.40;;;;;;;-128.00;-1.00;-1.00;104943;1264;1056655;-77
2023/02/02 11:30:39;;;;;;;5.80;4.80;;;;;;;-128.00;-1.00;-1.00;104930;1264;1059371;-78
2023/02/02 11:33:27;;;;;;;7.00;5.10;;;;;;;-128.00;-1.00;-1.00;104933;1264;1005050;-78
2023/02/02 11:36:03;;;;;;;10.10;7.80;;;;;;;-128.00;-1.00;-1.00;104854;1264;1046740;-78
2023/02/02 11:38:30;;;;;;;5.80;5.20;;;;;;;-128.00;-1.00;-1.00;104920;1263;1062161;-79
2023/02/02 11:41:09;;;;;;;10.20;6.40;;;;;;;-128.00;-1.00;-1.00;104930;1264;1004327;-80